sensor_id;sensor_type;location;lat;lon;timestamp;P1;durP1;ratioP1;P2;durP2;ratioP2
23159;SDS011;11748;50.844;4.396;2023-10-13T00:01:19;24.05;;;16.17;;
23159;SDS011;11748;50.844;4.396;2023-10-13T00:03:45;20.63;;;15.57;;
23159;SDS011;11748;50.844;4.396;2023-10-13T00:06:11;22.60;;;16.05;;
23159;SDS011;11748;50.844;4.396;2023-10-13T00:08:37;23.92;;;16.55;;
23159;SDS011;11748;50.844;4.396;2023-10-13T00:11:04;26.02;;;17.88;;
23159;SDS011;11748;50.844;4.396;2023-10-13T00:13:30;25.73;;;17.65;;
23159;SDS011;11748;50.844;4.396;2023-10-13T00:16:15;30.95;;;17.70;;
23159;SDS011;11748;50.844;4.396;2023-10-13T00:18:47;28.42;;;17.05;;
23159;SDS011;11748;50.844;4.396;2023-10-13T00:21:15;23.33;;;17.27;;
23159;SDS011;11748;50.844;4.396;2023-10-13T00:23:56;27.05;;;18.10;;
23159;SDS011;11748;50.844;4.396;2023-10-13T00:26:23;27.60;;;18.45;;
23159;SDS011;11748;50.844;4.396;2023-10-13T00:28:54;25.35;;;17.00;;
23159;SDS011;11748;50.844;4.396;2023-10-13T00:31:33;29.65;;;18.52;;
23159;SDS011;11748;50.844;4.396;2023-10-13T00:34:03;33.45;;;18.58;;
23159;SDS011;11748;50.844;4.396;2023-10-13T00:36:50;29.13;;;18.02;;
23159;SDS011;11748;50.844;4.396;2023-10-13T00:39:35;29.42;;;18.15;;
23159;SDS011;11748;50.844;4.396;2023-10-13T00:42:10;27.58;;;19.33;;
23159;SDS011;11748;50.844;4.396;2023-10-13T00:44:58;36.63;;;19.55;;
23159;SDS011;11748;50.844;4.396;2023-10-13T00:47:25;28.95;;;19.60;;
23159;SDS011;11748;50.844;4.396;2023-10-13T00:50:17;34.58;;;20.27;;
23159;SDS011;11748;50.844;4.396;2023-10-13T00:52:44;33.75;;;21.08;;
23159;SDS011;11748;50.844;4.396;2023-10-13T00:55:14;37.85;;;20.98;;
23159;SDS011;11748;50.844;4.396;2023-10-13T00:57:42;31.85;;;20.70;;
23159;SDS011;11748;50.844;4.396;2023-10-13T01:00:08;30.35;;;19.85;;
23159;SDS011;11748;50.844;4.396;2023-10-13T01:03:03;35.45;;;21.75;;
23159;SDS011;11748;50.844;4.396;2023-10-13T01:05:32;34.70;;;21.23;;
23159;SDS011;11748;50.844;4.396;2023-10-13T01:08:03;39.78;;;22.15;;
23159;SDS011;11748;50.844;4.396;2023-10-13T01:10:30;31.95;;;21.80;;
23159;SDS011;11748;50.844;4.396;2023-10-13T01:12:58;36.92;;;21.13;;
23159;SDS011;11748;50.844;4.396;2023-10-13T01:15:28;38.30;;;23.00;;
23159;SDS011;11748;50.844;4.396;2023-10-13T01:18:08;34.80;;;22.48;;
23159;SDS011;11748;50.844;4.396;2023-10-13T01:20:42;33.40;;;21.75;;
23159;SDS011;11748;50.844;4.396;2023-10-13T01:23:12;34.72;;;21.58;;
23159;SDS011;11748;50.844;4.396;2023-10-13T01:25:45;33.80;;;22.13;;
23159;SDS011;11748;50.844;4.396;2023-10-13T01:28:11;33.25;;;21.30;;
23159;SDS011;11748;50.844;4.396;2023-10-13T01:30:43;31.02;;;20.73;;
23159;SDS011;11748;50.844;4.396;2023-10-13T01:33:15;33.85;;;20.33;;
23159;SDS011;11748;50.844;4.396;2023-10-13T01:35:54;30.42;;;19.75;;
23159;SDS011;11748;50.844;4.396;2023-10-13T01:38:23;30.60;;;18.70;;
23159;SDS011;11748;50.844;4.396;2023-10-13T01:40:53;31.00;;;19.60;;
23159;SDS011;11748;50.844;4.396;2023-10-13T01:43:21;30.92;;;18.38;;
23159;SDS011;11748;50.844;4.396;2023-10-13T01:45:48;23.88;;;17.38;;
23159;SDS011;11748;50.844;4.396;2023-10-13T01:48:15;30.10;;;18.08;;
23159;SDS011;11748;50.844;4.396;2023-10-13T01:50:43;26.05;;;16.27;;
23159;SDS011;11748;50.844;4.396;2023-10-13T01:53:24;30.33;;;16.10;;
23159;SDS011;11748;50.844;4.396;2023-10-13T01:55:54;22.58;;;15.40;;
23159;SDS011;11748;50.844;4.396;2023-10-13T01:58:22;22.17;;;14.60;;
23159;SDS011;11748;50.844;4.396;2023-10-13T02:00:51;23.75;;;14.38;;
23159;SDS011;11748;50.844;4.396;2023-10-13T02:03:17;22.52;;;14.77;;
23159;SDS011;11748;50.844;4.396;2023-10-13T02:05:43;23.73;;;14.07;;
23159;SDS011;11748;50.844;4.396;2023-10-13T02:08:17;20.05;;;13.48;;
23159;SDS011;11748;50.844;4.396;2023-10-13T02:10:56;21.75;;;13.90;;
23159;SDS011;11748;50.844;4.396;2023-10-13T02:13:25;19.83;;;13.38;;
23159;SDS011;11748;50.844;4.396;2023-10-13T02:15:55;22.63;;;12.70;;
23159;SDS011;11748;50.844;4.396;2023-10-13T02:18:22;25.15;;;13.07;;
23159;SDS011;11748;50.844;4.396;2023-10-13T02:20:52;19.60;;;12.38;;
23159;SDS011;11748;50.844;4.396;2023-10-13T02:23:25;18.90;;;12.60;;
23159;SDS011;11748;50.844;4.396;2023-10-13T02:25:54;21.67;;;13.07;;
23159;SDS011;11748;50.844;4.396;2023-10-13T02:28:26;22.23;;;12.50;;
23159;SDS011;11748;50.844;4.396;2023-10-13T02:30:55;24.20;;;13.45;;
23159;SDS011;11748;50.844;4.396;2023-10-13T02:33:22;21.27;;;12.20;;
23159;SDS011;11748;50.844;4.396;2023-10-13T02:35:58;25.83;;;12.73;;
23159;SDS011;11748;50.844;4.396;2023-10-13T02:38:31;19.15;;;12.85;;
23159;SDS011;11748;50.844;4.396;2023-10-13T02:41:04;20.83;;;11.63;;
23159;SDS011;11748;50.844;4.396;2023-10-13T02:43:36;22.92;;;11.98;;
23159;SDS011;11748;50.844;4.396;2023-10-13T02:46:03;17.95;;;12.45;;
23159;SDS011;11748;50.844;4.396;2023-10-13T02:48:29;18.10;;;11.15;;
23159;SDS011;11748;50.844;4.396;2023-10-13T02:51:04;21.98;;;11.95;;
23159;SDS011;11748;50.844;4.396;2023-10-13T02:53:40;20.10;;;11.98;;
23159;SDS011;11748;50.844;4.396;2023-10-13T02:56:06;18.92;;;11.98;;
23159;SDS011;11748;50.844;4.396;2023-10-13T02:58:33;20.63;;;12.00;;
23159;SDS011;11748;50.844;4.396;2023-10-13T03:01:05;21.33;;;11.27;;
23159;SDS011;11748;50.844;4.396;2023-10-13T03:03:42;22.45;;;11.95;;
23159;SDS011;11748;50.844;4.396;2023-10-13T03:06:08;21.55;;;11.52;;
23159;SDS011;11748;50.844;4.396;2023-10-13T03:08:37;19.25;;;11.88;;
23159;SDS011;11748;50.844;4.396;2023-10-13T03:11:03;22.15;;;11.90;;
23159;SDS011;11748;50.844;4.396;2023-10-13T03:13:30;21.13;;;10.85;;
23159;SDS011;11748;50.844;4.396;2023-10-13T03:15:58;19.75;;;11.10;;
23159;SDS011;11748;50.844;4.396;2023-10-13T03:18:24;19.80;;;10.68;;
23159;SDS011;11748;50.844;4.396;2023-10-13T03:20:50;21.60;;;10.43;;
23159;SDS011;11748;50.844;4.396;2023-10-13T03:23:22;14.65;;;10.45;;
23159;SDS011;11748;50.844;4.396;2023-10-13T03:25:49;19.25;;;10.27;;
23159;SDS011;11748;50.844;4.396;2023-10-13T03:28:15;23.30;;;10.90;;
23159;SDS011;11748;50.844;4.396;2023-10-13T03:30:43;18.90;;;10.38;;
23159;SDS011;11748;50.844;4.396;2023-10-13T03:33:09;20.95;;;10.40;;
23159;SDS011;11748;50.844;4.396;2023-10-13T03:35:39;17.88;;;10.20;;
23159;SDS011;11748;50.844;4.396;2023-10-13T03:38:08;22.02;;;10.52;;
23159;SDS011;11748;50.844;4.396;2023-10-13T03:40:44;22.63;;;10.73;;
23159;SDS011;11748;50.844;4.396;2023-10-13T03:43:14;22.95;;;10.90;;
23159;SDS011;11748;50.844;4.396;2023-10-13T03:45:46;22.25;;;10.77;;
23159;SDS011;11748;50.844;4.396;2023-10-13T03:48:17;20.33;;;10.50;;
23159;SDS011;11748;50.844;4.396;2023-10-13T03:50:50;20.77;;;9.90;;
23159;SDS011;11748;50.844;4.396;2023-10-13T03:53:27;16.98;;;9.82;;
23159;SDS011;11748;50.844;4.396;2023-10-13T03:55:58;24.48;;;10.88;;
23159;SDS011;11748;50.844;4.396;2023-10-13T03:58:37;18.17;;;9.82;;
23159;SDS011;11748;50.844;4.396;2023-10-13T04:01:07;17.25;;;10.00;;
23159;SDS011;11748;50.844;4.396;2023-10-13T04:03:35;14.57;;;9.07;;
23159;SDS011;11748;50.844;4.396;2023-10-13T04:06:01;13.90;;;8.90;;
23159;SDS011;11748;50.844;4.396;2023-10-13T04:08:41;17.85;;;9.23;;
23159;SDS011;11748;50.844;4.396;2023-10-13T04:11:13;16.38;;;8.35;;
23159;SDS011;11748;50.844;4.396;2023-10-13T04:13:57;19.77;;;9.57;;
23159;SDS011;11748;50.844;4.396;2023-10-13T04:16:48;17.08;;;8.55;;
23159;SDS011;11748;50.844;4.396;2023-10-13T04:19:23;20.10;;;9.75;;
23159;SDS011;11748;50.844;4.396;2023-10-13T04:21:49;22.75;;;9.02;;
23159;SDS011;11748;50.844;4.396;2023-10-13T04:24:25;23.02;;;8.88;;
23159;SDS011;11748;50.844;4.396;2023-10-13T04:26:52;19.08;;;8.90;;
23159;SDS011;11748;50.844;4.396;2023-10-13T04:29:36;17.30;;;8.77;;
23159;SDS011;11748;50.844;4.396;2023-10-13T04:32:17;27.00;;;9.13;;
23159;SDS011;11748;50.844;4.396;2023-10-13T04:35:04;19.85;;;9.20;;
23159;SDS011;11748;50.844;4.396;2023-10-13T04:37:39;19.98;;;8.10;;
23159;SDS011;11748;50.844;4.396;2023-10-13T04:40:40;18.38;;;8.63;;
23159;SDS011;11748;50.844;4.396;2023-10-13T04:43:24;22.90;;;9.38;;
23159;SDS011;11748;50.844;4.396;2023-10-13T04:46:20;19.73;;;8.90;;
23159;SDS011;11748;50.844;4.396;2023-10-13T04:49:19;20.85;;;9.70;;
23159;SDS011;11748;50.844;4.396;2023-10-13T04:52:04;19.77;;;9.02;;
23159;SDS011;11748;50.844;4.396;2023-10-13T04:54:35;20.58;;;8.70;;
23159;SDS011;11748;50.844;4.396;2023-10-13T04:57:10;19.35;;;9.57;;
23159;SDS011;11748;50.844;4.396;2023-10-13T04:59:58;24.60;;;10.27;;
23159;SDS011;11748;50.844;4.396;2023-10-13T05:02:29;25.30;;;9.73;;
23159;SDS011;11748;50.844;4.396;2023-10-13T05:05:04;21.10;;;9.20;;
23159;SDS011;11748;50.844;4.396;2023-10-13T05:07:50;21.40;;;9.35;;
23159;SDS011;11748;50.844;4.396;2023-10-13T05:10:35;21.27;;;8.15;;
23159;SDS011;11748;50.844;4.396;2023-10-13T05:13:20;19.23;;;8.15;;
23159;SDS011;11748;50.844;4.396;2023-10-13T05:16:04;21.42;;;8.30;;
23159;SDS011;11748;50.844;4.396;2023-10-13T05:18:48;18.27;;;7.55;;
23159;SDS011;11748;50.844;4.396;2023-10-13T05:21:33;23.50;;;8.15;;
23159;SDS011;11748;50.844;4.396;2023-10-13T05:24:37;20.88;;;7.88;;
23159;SDS011;11748;50.844;4.396;2023-10-13T05:27:21;17.77;;;7.45;;
23159;SDS011;11748;50.844;4.396;2023-10-13T05:30:06;16.65;;;7.65;;
23159;SDS011;11748;50.844;4.396;2023-10-13T05:32:50;14.82;;;7.35;;
23159;SDS011;11748;50.844;4.396;2023-10-13T05:35:34;25.77;;;7.77;;
23159;SDS011;11748;50.844;4.396;2023-10-13T05:38:19;19.27;;;7.28;;
23159;SDS011;11748;50.844;4.396;2023-10-13T05:41:04;20.30;;;7.20;;
23159;SDS011;11748;50.844;4.396;2023-10-13T05:43:49;16.23;;;7.15;;
23159;SDS011;11748;50.844;4.396;2023-10-13T05:46:34;19.75;;;7.35;;
23159;SDS011;11748;50.844;4.396;2023-10-13T05:49:00;16.75;;;7.15;;
23159;SDS011;11748;50.844;4.396;2023-10-13T05:51:31;16.65;;;6.97;;
23159;SDS011;11748;50.844;4.396;2023-10-13T05:54:00;19.20;;;6.90;;
23159;SDS011;11748;50.844;4.396;2023-10-13T05:56:42;18.58;;;6.75;;
23159;SDS011;11748;50.844;4.396;2023-10-13T05:59:27;17.88;;;6.68;;
23159;SDS011;11748;50.844;4.396;2023-10-13T06:02:12;20.50;;;6.60;;
23159;SDS011;11748;50.844;4.396;2023-10-13T06:04:58;18.13;;;6.78;;
23159;SDS011;11748;50.844;4.396;2023-10-13T06:07:45;23.52;;;7.35;;
23159;SDS011;11748;50.844;4.396;2023-10-13T06:10:29;16.43;;;7.27;;
23159;SDS011;11748;50.844;4.396;2023-10-13T06:13:13;14.40;;;6.57;;
23159;SDS011;11748;50.844;4.396;2023-10-13T06:15:57;15.07;;;5.90;;
23159;SDS011;11748;50.844;4.396;2023-10-13T06:18:50;16.47;;;6.87;;
23159;SDS011;11748;50.844;4.396;2023-10-13T06:21:54;18.63;;;6.22;;
23159;SDS011;11748;50.844;4.396;2023-10-13T06:24:39;18.23;;;6.88;;
23159;SDS011;11748;50.844;4.396;2023-10-13T06:27:29;16.67;;;6.67;;
23159;SDS011;11748;50.844;4.396;2023-10-13T06:30:14;21.05;;;6.82;;
23159;SDS011;11748;50.844;4.396;2023-10-13T06:32:42;25.98;;;6.53;;
23159;SDS011;11748;50.844;4.396;2023-10-13T06:35:08;17.40;;;5.97;;
23159;SDS011;11748;50.844;4.396;2023-10-13T06:37:34;13.55;;;5.57;;
23159;SDS011;11748;50.844;4.396;2023-10-13T06:40:11;15.48;;;5.78;;
23159;SDS011;11748;50.844;4.396;2023-10-13T06:42:46;18.55;;;6.15;;
23159;SDS011;11748;50.844;4.396;2023-10-13T06:45:12;18.17;;;6.70;;
23159;SDS011;11748;50.844;4.396;2023-10-13T06:47:41;17.30;;;6.63;;
23159;SDS011;11748;50.844;4.396;2023-10-13T06:50:11;22.55;;;5.63;;
23159;SDS011;11748;50.844;4.396;2023-10-13T06:52:41;18.73;;;5.78;;
23159;SDS011;11748;50.844;4.396;2023-10-13T06:55:09;16.40;;;5.88;;
23159;SDS011;11748;50.844;4.396;2023-10-13T06:57:42;13.07;;;6.35;;
23159;SDS011;11748;50.844;4.396;2023-10-13T07:00:09;12.63;;;5.20;;
23159;SDS011;11748;50.844;4.396;2023-10-13T07:02:44;14.40;;;5.65;;
23159;SDS011;11748;50.844;4.396;2023-10-13T07:05:12;20.40;;;5.53;;
23159;SDS011;11748;50.844;4.396;2023-10-13T07:07:39;19.15;;;6.18;;
23159;SDS011;11748;50.844;4.396;2023-10-13T07:10:10;17.35;;;5.60;;
23159;SDS011;11748;50.844;4.396;2023-10-13T07:12:40;18.92;;;5.90;;
23159;SDS011;11748;50.844;4.396;2023-10-13T07:15:11;17.50;;;5.75;;
23159;SDS011;11748;50.844;4.396;2023-10-13T07:17:45;12.80;;;4.72;;
23159;SDS011;11748;50.844;4.396;2023-10-13T07:20:24;18.08;;;5.05;;
23159;SDS011;11748;50.844;4.396;2023-10-13T07:22:50;13.60;;;5.68;;
23159;SDS011;11748;50.844;4.396;2023-10-13T07:25:29;11.18;;;5.85;;
23159;SDS011;11748;50.844;4.396;2023-10-13T07:28:02;11.68;;;5.20;;
23159;SDS011;11748;50.844;4.396;2023-10-13T07:30:29;19.60;;;6.00;;
23159;SDS011;11748;50.844;4.396;2023-10-13T07:32:57;17.42;;;5.85;;
23159;SDS011;11748;50.844;4.396;2023-10-13T07:35:24;16.67;;;5.80;;
23159;SDS011;11748;50.844;4.396;2023-10-13T07:37:51;14.40;;;5.32;;
23159;SDS011;11748;50.844;4.396;2023-10-13T07:40:19;12.55;;;5.05;;
23159;SDS011;11748;50.844;4.396;2023-10-13T07:42:51;12.07;;;5.00;;
23159;SDS011;11748;50.844;4.396;2023-10-13T07:45:28;12.27;;;5.05;;
23159;SDS011;11748;50.844;4.396;2023-10-13T07:48:06;14.85;;;5.75;;
23159;SDS011;11748;50.844;4.396;2023-10-13T07:51:01;16.65;;;5.38;;
23159;SDS011;11748;50.844;4.396;2023-10-13T07:53:30;11.32;;;5.30;;
23159;SDS011;11748;50.844;4.396;2023-10-13T07:56:00;17.58;;;4.78;;
23159;SDS011;11748;50.844;4.396;2023-10-13T07:58:52;12.75;;;4.93;;
23159;SDS011;11748;50.844;4.396;2023-10-13T08:01:25;14.77;;;5.97;;
23159;SDS011;11748;50.844;4.396;2023-10-13T08:03:52;16.88;;;6.07;;
23159;SDS011;11748;50.844;4.396;2023-10-13T08:06:37;10.88;;;4.85;;
23159;SDS011;11748;50.844;4.396;2023-10-13T08:09:05;20.23;;;5.10;;
23159;SDS011;11748;50.844;4.396;2023-10-13T08:11:50;14.70;;;6.03;;
23159;SDS011;11748;50.844;4.396;2023-10-13T08:14:19;13.57;;;5.40;;
23159;SDS011;11748;50.844;4.396;2023-10-13T08:16:48;16.48;;;5.15;;
23159;SDS011;11748;50.844;4.396;2023-10-13T08:19:25;11.20;;;4.93;;
23159;SDS011;11748;50.844;4.396;2023-10-13T08:24:43;13.10;;;5.90;;
23159;SDS011;11748;50.844;4.396;2023-10-13T08:27:10;19.05;;;6.05;;
23159;SDS011;11748;50.844;4.396;2023-10-13T08:29:59;14.50;;;5.43;;
23159;SDS011;11748;50.844;4.396;2023-10-13T08:32:44;17.17;;;5.72;;
23159;SDS011;11748;50.844;4.396;2023-10-13T08:35:23;11.23;;;5.13;;
23159;SDS011;11748;50.844;4.396;2023-10-13T08:37:55;14.60;;;5.10;;
23159;SDS011;11748;50.844;4.396;2023-10-13T08:40:26;15.18;;;5.07;;
23159;SDS011;11748;50.844;4.396;2023-10-13T08:43:11;12.88;;;5.03;;
23159;SDS011;11748;50.844;4.396;2023-10-13T08:45:41;9.82;;;4.82;;
23159;SDS011;11748;50.844;4.396;2023-10-13T08:48:09;13.60;;;4.97;;
23159;SDS011;11748;50.844;4.396;2023-10-13T08:53:20;13.23;;;5.07;;
23159;SDS011;11748;50.844;4.396;2023-10-13T08:55:58;15.73;;;5.25;;
23159;SDS011;11748;50.844;4.396;2023-10-13T08:58:33;16.53;;;5.30;;
23159;SDS011;11748;50.844;4.396;2023-10-13T09:01:30;14.50;;;5.68;;
23159;SDS011;11748;50.844;4.396;2023-10-13T09:04:02;10.80;;;5.00;;
23159;SDS011;11748;50.844;4.396;2023-10-13T09:09:51;17.17;;;5.37;;
23159;SDS011;11748;50.844;4.396;2023-10-13T09:12:27;21.15;;;5.63;;
23159;SDS011;11748;50.844;4.396;2023-10-13T09:14:59;15.07;;;5.82;;
23159;SDS011;11748;50.844;4.396;2023-10-13T09:17:39;13.73;;;5.90;;
23159;SDS011;11748;50.844;4.396;2023-10-13T09:20:29;20.20;;;6.38;;
23159;SDS011;11748;50.844;4.396;2023-10-13T09:23:11;16.42;;;6.03;;
23159;SDS011;11748;50.844;4.396;2023-10-13T09:25:49;11.20;;;5.82;;
23159;SDS011;11748;50.844;4.396;2023-10-13T09:28:34;10.57;;;5.40;;
23159;SDS011;11748;50.844;4.396;2023-10-13T09:31:02;16.45;;;6.05;;
23159;SDS011;11748;50.844;4.396;2023-10-13T09:33:35;15.75;;;6.78;;
23159;SDS011;11748;50.844;4.396;2023-10-13T09:36:04;14.57;;;5.50;;
23159;SDS011;11748;50.844;4.396;2023-10-13T09:38:38;15.70;;;6.22;;
23159;SDS011;11748;50.844;4.396;2023-10-13T09:41:13;16.33;;;5.10;;
23159;SDS011;11748;50.844;4.396;2023-10-13T09:43:45;13.55;;;5.90;;
23159;SDS011;11748;50.844;4.396;2023-10-13T09:46:13;15.75;;;6.15;;
23159;SDS011;11748;50.844;4.396;2023-10-13T09:48:45;15.13;;;5.80;;
23159;SDS011;11748;50.844;4.396;2023-10-13T09:51:16;14.20;;;5.45;;
23159;SDS011;11748;50.844;4.396;2023-10-13T09:53:56;18.25;;;6.30;;
23159;SDS011;11748;50.844;4.396;2023-10-13T09:56:39;22.85;;;6.13;;
23159;SDS011;11748;50.844;4.396;2023-10-13T09:59:20;14.82;;;5.60;;
23159;SDS011;11748;50.844;4.396;2023-10-13T10:02:00;16.73;;;5.50;;
23159;SDS011;11748;50.844;4.396;2023-10-13T10:04:33;19.17;;;6.20;;
23159;SDS011;11748;50.844;4.396;2023-10-13T10:07:09;15.63;;;5.70;;
23159;SDS011;11748;50.844;4.396;2023-10-13T10:09:35;17.40;;;5.90;;
23159;SDS011;11748;50.844;4.396;2023-10-13T10:17:21;13.55;;;5.70;;
23159;SDS011;11748;50.844;4.396;2023-10-13T10:19:51;16.98;;;5.63;;
23159;SDS011;11748;50.844;4.396;2023-10-13T10:24:58;17.17;;;5.70;;
23159;SDS011;11748;50.844;4.396;2023-10-13T10:27:28;17.48;;;5.57;;
23159;SDS011;11748;50.844;4.396;2023-10-13T10:29:58;21.77;;;6.13;;
23159;SDS011;11748;50.844;4.396;2023-10-13T10:32:36;16.30;;;5.32;;
23159;SDS011;11748;50.844;4.396;2023-10-13T10:35:06;23.80;;;7.53;;
23159;SDS011;11748;50.844;4.396;2023-10-13T10:37:46;15.13;;;5.43;;
23159;SDS011;11748;50.844;4.396;2023-10-13T10:40:13;15.48;;;5.72;;
23159;SDS011;11748;50.844;4.396;2023-10-13T10:42:58;20.73;;;6.13;;
23159;SDS011;11748;50.844;4.396;2023-10-13T10:45:35;19.98;;;5.82;;
23159;SDS011;11748;50.844;4.396;2023-10-13T10:48:02;17.23;;;5.75;;
23159;SDS011;11748;50.844;4.396;2023-10-13T10:50:43;19.73;;;6.10;;
23159;SDS011;11748;50.844;4.396;2023-10-13T10:53:19;13.10;;;5.90;;
23159;SDS011;11748;50.844;4.396;2023-10-13T10:55:47;24.15;;;6.00;;
23159;SDS011;11748;50.844;4.396;2023-10-13T10:58:14;20.70;;;6.38;;
23159;SDS011;11748;50.844;4.396;2023-10-13T11:01:09;20.33;;;6.97;;
23159;SDS011;11748;50.844;4.396;2023-10-13T11:03:36;19.33;;;5.80;;
23159;SDS011;11748;50.844;4.396;2023-10-13T11:06:11;17.52;;;5.65;;
23159;SDS011;11748;50.844;4.396;2023-10-13T11:08:40;17.90;;;6.05;;
23159;SDS011;11748;50.844;4.396;2023-10-13T11:11:09;22.30;;;5.55;;
23159;SDS011;11748;50.844;4.396;2023-10-13T11:13:43;19.92;;;6.03;;
23159;SDS011;11748;50.844;4.396;2023-10-13T11:16:44;16.48;;;6.07;;
23159;SDS011;11748;50.844;4.396;2023-10-13T11:19:15;19.00;;;6.00;;
23159;SDS011;11748;50.844;4.396;2023-10-13T11:21:45;18.80;;;6.07;;
23159;SDS011;11748;50.844;4.396;2023-10-13T11:24:14;14.75;;;5.68;;
23159;SDS011;11748;50.844;4.396;2023-10-13T11:26:42;15.73;;;5.65;;
23159;SDS011;11748;50.844;4.396;2023-10-13T11:29:18;18.42;;;5.93;;
23159;SDS011;11748;50.844;4.396;2023-10-13T11:31:47;17.73;;;5.78;;
23159;SDS011;11748;50.844;4.396;2023-10-13T11:34:24;23.50;;;5.70;;
23159;SDS011;11748;50.844;4.396;2023-10-13T11:36:50;21.55;;;5.28;;
23159;SDS011;11748;50.844;4.396;2023-10-13T11:39:16;25.88;;;7.43;;
23159;SDS011;11748;50.844;4.396;2023-10-13T11:41:49;19.27;;;6.22;;
23159;SDS011;11748;50.844;4.396;2023-10-13T11:44:21;16.98;;;6.05;;
23159;SDS011;11748;50.844;4.396;2023-10-13T11:46:51;14.98;;;5.05;;
23159;SDS011;11748;50.844;4.396;2023-10-13T11:49:33;14.43;;;5.72;;
23159;SDS011;11748;50.844;4.396;2023-10-13T11:52:06;14.55;;;5.43;;
23159;SDS011;11748;50.844;4.396;2023-10-13T11:54:53;20.52;;;6.10;;
23159;SDS011;11748;50.844;4.396;2023-10-13T11:57:19;19.42;;;5.68;;
23159;SDS011;11748;50.844;4.396;2023-10-13T11:59:46;13.00;;;5.35;;
23159;SDS011;11748;50.844;4.396;2023-10-13T12:02:19;20.63;;;6.47;;
23159;SDS011;11748;50.844;4.396;2023-10-13T12:04:53;17.98;;;5.45;;
23159;SDS011;11748;50.844;4.396;2023-10-13T12:07:36;21.15;;;5.72;;
23159;SDS011;11748;50.844;4.396;2023-10-13T12:10:10;24.33;;;6.03;;
23159;SDS011;11748;50.844;4.396;2023-10-13T12:12:59;15.07;;;5.30;;
23159;SDS011;11748;50.844;4.396;2023-10-13T12:15:31;15.20;;;5.72;;
23159;SDS011;11748;50.844;4.396;2023-10-13T12:18:13;18.88;;;5.10;;
23159;SDS011;11748;50.844;4.396;2023-10-13T12:20:40;18.60;;;5.93;;
23159;SDS011;11748;50.844;4.396;2023-10-13T12:23:13;15.95;;;6.22;;
23159;SDS011;11748;50.844;4.396;2023-10-13T12:25:44;16.60;;;5.75;;
23159;SDS011;11748;50.844;4.396;2023-10-13T12:28:30;17.17;;;5.25;;
23159;SDS011;11748;50.844;4.396;2023-10-13T12:31:05;14.13;;;4.63;;
23159;SDS011;11748;50.844;4.396;2023-10-13T12:33:36;17.20;;;5.40;;
23159;SDS011;11748;50.844;4.396;2023-10-13T12:36:04;16.95;;;4.82;;
23159;SDS011;11748;50.844;4.396;2023-10-13T12:38:39;14.23;;;5.93;;
23159;SDS011;11748;50.844;4.396;2023-10-13T12:41:10;17.25;;;4.80;;
23159;SDS011;11748;50.844;4.396;2023-10-13T12:43:55;13.90;;;5.25;;
23159;SDS011;11748;50.844;4.396;2023-10-13T12:46:41;15.82;;;5.63;;
23159;SDS011;11748;50.844;4.396;2023-10-13T12:49:26;17.13;;;5.68;;
23159;SDS011;11748;50.844;4.396;2023-10-13T12:52:16;13.32;;;5.45;;
23159;SDS011;11748;50.844;4.396;2023-10-13T12:54:44;15.45;;;5.13;;
23159;SDS011;11748;50.844;4.396;2023-10-13T12:57:25;11.70;;;4.57;;
23159;SDS011;11748;50.844;4.396;2023-10-13T12:59:54;16.83;;;5.13;;
23159;SDS011;11748;50.844;4.396;2023-10-13T13:04:46;16.67;;;4.75;;
23159;SDS011;11748;50.844;4.396;2023-10-13T13:07:19;15.85;;;5.22;;
23159;SDS011;11748;50.844;4.396;2023-10-13T13:09:45;13.80;;;5.20;;
23159;SDS011;11748;50.844;4.396;2023-10-13T13:12:11;14.13;;;4.72;;
23159;SDS011;11748;50.844;4.396;2023-10-13T13:14:38;12.82;;;5.57;;
23159;SDS011;11748;50.844;4.396;2023-10-13T13:17:06;14.13;;;4.95;;
23159;SDS011;11748;50.844;4.396;2023-10-13T13:19:36;12.18;;;4.65;;
23159;SDS011;11748;50.844;4.396;2023-10-13T13:22:11;14.35;;;4.78;;
23159;SDS011;11748;50.844;4.396;2023-10-13T13:24:44;15.90;;;5.28;;
23159;SDS011;11748;50.844;4.396;2023-10-13T13:27:11;15.30;;;4.72;;
23159;SDS011;11748;50.844;4.396;2023-10-13T13:29:42;14.23;;;5.90;;
23159;SDS011;11748;50.844;4.396;2023-10-13T13:32:08;13.60;;;4.55;;
23159;SDS011;11748;50.844;4.396;2023-10-13T13:34:44;16.13;;;4.38;;
23159;SDS011;11748;50.844;4.396;2023-10-13T13:37:19;12.98;;;5.05;;
23159;SDS011;11748;50.844;4.396;2023-10-13T13:39:45;15.43;;;4.80;;
23159;SDS011;11748;50.844;4.396;2023-10-13T13:42:11;14.20;;;5.03;;
23159;SDS011;11748;50.844;4.396;2023-10-13T13:44:43;11.18;;;4.35;;
23159;SDS011;11748;50.844;4.396;2023-10-13T13:47:15;12.82;;;4.78;;
23159;SDS011;11748;50.844;4.396;2023-10-13T13:49:42;10.70;;;5.00;;
23159;SDS011;11748;50.844;4.396;2023-10-13T13:52:17;12.57;;;4.70;;
23159;SDS011;11748;50.844;4.396;2023-10-13T13:54:47;14.82;;;4.63;;
23159;SDS011;11748;50.844;4.396;2023-10-13T13:57:13;13.63;;;4.22;;
23159;SDS011;11748;50.844;4.396;2023-10-13T13:59:39;11.93;;;4.82;;
23159;SDS011;11748;50.844;4.396;2023-10-13T14:02:09;13.68;;;4.38;;
23159;SDS011;11748;50.844;4.396;2023-10-13T14:04:47;10.13;;;4.40;;
23159;SDS011;11748;50.844;4.396;2023-10-13T14:07:17;12.23;;;4.63;;
23159;SDS011;11748;50.844;4.396;2023-10-13T14:09:45;13.57;;;5.00;;
23159;SDS011;11748;50.844;4.396;2023-10-13T14:12:16;12.82;;;4.72;;
23159;SDS011;11748;50.844;4.396;2023-10-13T14:15:01;13.65;;;4.57;;
23159;SDS011;11748;50.844;4.396;2023-10-13T14:17:28;15.52;;;5.10;;
23159;SDS011;11748;50.844;4.396;2023-10-13T14:20:00;13.43;;;4.90;;
23159;SDS011;11748;50.844;4.396;2023-10-13T14:22:35;14.77;;;5.05;;
23159;SDS011;11748;50.844;4.396;2023-10-13T14:25:02;10.70;;;4.47;;
23159;SDS011;11748;50.844;4.396;2023-10-13T14:27:34;11.98;;;4.53;;
23159;SDS011;11748;50.844;4.396;2023-10-13T14:30:01;12.25;;;4.78;;
23159;SDS011;11748;50.844;4.396;2023-10-13T14:32:27;13.57;;;5.03;;
23159;SDS011;11748;50.844;4.396;2023-10-13T14:34:53;11.35;;;4.93;;
23159;SDS011;11748;50.844;4.396;2023-10-13T14:37:21;12.77;;;4.63;;
23159;SDS011;11748;50.844;4.396;2023-10-13T14:39:56;11.63;;;4.82;;
23159;SDS011;11748;50.844;4.396;2023-10-13T14:42:25;9.55;;;4.63;;
23159;SDS011;11748;50.844;4.396;2023-10-13T14:44:52;13.00;;;4.93;;
23159;SDS011;11748;50.844;4.396;2023-10-13T14:47:22;10.82;;;5.00;;
23159;SDS011;11748;50.844;4.396;2023-10-13T14:49:55;12.45;;;5.22;;
23159;SDS011;11748;50.844;4.396;2023-10-13T14:52:25;13.32;;;5.05;;
23159;SDS011;11748;50.844;4.396;2023-10-13T14:54:51;10.60;;;5.00;;
23159;SDS011;11748;50.844;4.396;2023-10-13T14:57:21;13.80;;;4.93;;
23159;SDS011;11748;50.844;4.396;2023-10-13T14:59:50;11.48;;;5.35;;
23159;SDS011;11748;50.844;4.396;2023-10-13T15:02:19;17.20;;;5.13;;
23159;SDS011;11748;50.844;4.396;2023-10-13T15:04:46;10.55;;;4.45;;
23159;SDS011;11748;50.844;4.396;2023-10-13T15:07:13;12.52;;;4.78;;
23159;SDS011;11748;50.844;4.396;2023-10-13T15:09:45;13.20;;;4.50;;
23159;SDS011;11748;50.844;4.396;2023-10-13T15:12:11;10.07;;;5.20;;
23159;SDS011;11748;50.844;4.396;2023-10-13T15:14:40;14.43;;;5.65;;
23159;SDS011;11748;50.844;4.396;2023-10-13T15:17:09;13.50;;;5.30;;
23159;SDS011;11748;50.844;4.396;2023-10-13T15:19:35;12.25;;;5.43;;
23159;SDS011;11748;50.844;4.396;2023-10-13T15:22:04;10.35;;;4.95;;
23159;SDS011;11748;50.844;4.396;2023-10-13T15:24:37;15.38;;;5.43;;
23159;SDS011;11748;50.844;4.396;2023-10-13T15:27:25;12.32;;;5.13;;
23159;SDS011;11748;50.844;4.396;2023-10-13T15:29:54;14.45;;;6.13;;